Terminal Aerodrome Forecast
Issued by NWS Corpus Christi, TX

Home | Current Version | Previous Version | Text Only | Print | Product List | Glossary On
Versions: 1 2 3 4 5 6 7 8 9 10 11 12 13 14 15 16 17 18
000
FTUS44 KCRP 280521
TAFCRP
TAF
KCRP 280521Z 2806/0106 15015KT 6SM BR SCT012 BKN250
      TEMPO 2806/2810 BKN012
     FM281000 17009KT 6SM BR OVC010 WS020/18040KT
      TEMPO 2810/2813 5SM BR OVC007
     FM281400 18010G15KT P6SM BKN015
     FM281600 18018G25KT P6SM BKN025
     FM281900 16020G25KT P6SM SCT035 BKN250
     FM010300 15015KT P6SM SCT025 BKN250=

USA.gov is the U.S. government's official web portal to all federal, state and local government web resources and services.